sensor_id;sensor_type;location;lat;lon;timestamp;P1;durP1;ratioP1;P2;durP2;ratioP2
53881;SDS011;39794;55.782;37.452;2022-12-18T00:00:31;10.93;;;6.80;;
53881;SDS011;39794;55.782;37.452;2022-12-18T00:02:59;12.68;;;5.70;;
53881;SDS011;39794;55.782;37.452;2022-12-18T00:05:28;9.98;;;5.05;;
53881;SDS011;39794;55.782;37.452;2022-12-18T00:07:56;9.63;;;5.47;;
53881;SDS011;39794;55.782;37.452;2022-12-18T00:10:36;9.27;;;4.97;;
53881;SDS011;39794;55.782;37.452;2022-12-18T00:13:04;8.30;;;5.28;;
53881;SDS011;39794;55.782;37.452;2022-12-18T00:15:36;5.40;;;3.78;;
53881;SDS011;39794;55.782;37.452;2022-12-18T00:18:07;8.23;;;5.20;;
53881;SDS011;39794;55.782;37.452;2022-12-18T00:20:41;9.60;;;5.90;;
53881;SDS011;39794;55.782;37.452;2022-12-18T00:23:12;9.40;;;5.03;;
53881;SDS011;39794;55.782;37.452;2022-12-18T00:25:42;8.32;;;4.70;;
53881;SDS011;39794;55.782;37.452;2022-12-18T00:28:10;9.52;;;5.45;;
53881;SDS011;39794;55.782;37.452;2022-12-18T00:30:39;9.63;;;5.78;;
53881;SDS011;39794;55.782;37.452;2022-12-18T00:33:07;11.27;;;5.85;;
53881;SDS011;39794;55.782;37.452;2022-12-18T00:35:36;12.93;;;6.95;;
53881;SDS011;39794;55.782;37.452;2022-12-18T00:38:06;9.77;;;6.35;;
53881;SDS011;39794;55.782;37.452;2022-12-18T00:40:35;6.93;;;4.50;;
53881;SDS011;39794;55.782;37.452;2022-12-18T00:43:04;7.55;;;5.38;;
53881;SDS011;39794;55.782;37.452;2022-12-18T00:45:35;9.25;;;4.60;;
53881;SDS011;39794;55.782;37.452;2022-12-18T00:48:03;10.02;;;5.40;;
53881;SDS011;39794;55.782;37.452;2022-12-18T00:50:32;9.38;;;5.43;;
53881;SDS011;39794;55.782;37.452;2022-12-18T00:53:03;6.85;;;4.38;;
53881;SDS011;39794;55.782;37.452;2022-12-18T00:55:36;9.15;;;4.85;;
53881;SDS011;39794;55.782;37.452;2022-12-18T00:58:06;9.50;;;5.65;;
53881;SDS011;39794;55.782;37.452;2022-12-18T01:00:37;7.05;;;4.90;;
53881;SDS011;39794;55.782;37.452;2022-12-18T01:03:10;12.77;;;5.18;;
53881;SDS011;39794;55.782;37.452;2022-12-18T01:05:43;9.75;;;6.43;;
53881;SDS011;39794;55.782;37.452;2022-12-18T01:08:12;8.50;;;5.55;;
53881;SDS011;39794;55.782;37.452;2022-12-18T01:10:42;11.07;;;6.47;;
53881;SDS011;39794;55.782;37.452;2022-12-18T01:13:13;9.75;;;5.88;;
53881;SDS011;39794;55.782;37.452;2022-12-18T01:15:47;10.05;;;5.07;;
53881;SDS011;39794;55.782;37.452;2022-12-18T01:18:16;6.90;;;4.70;;
53881;SDS011;39794;55.782;37.452;2022-12-18T01:20:44;9.90;;;6.00;;
53881;SDS011;39794;55.782;37.452;2022-12-18T01:23:13;8.02;;;5.15;;
53881;SDS011;39794;55.782;37.452;2022-12-18T01:25:41;10.93;;;5.22;;
53881;SDS011;39794;55.782;37.452;2022-12-18T01:28:10;9.27;;;5.20;;
53881;SDS011;39794;55.782;37.452;2022-12-18T01:30:41;6.45;;;4.80;;
53881;SDS011;39794;55.782;37.452;2022-12-18T01:33:09;7.30;;;4.13;;
53881;SDS011;39794;55.782;37.452;2022-12-18T01:35:40;9.93;;;4.22;;
53881;SDS011;39794;55.782;37.452;2022-12-18T01:38:09;8.40;;;4.85;;
53881;SDS011;39794;55.782;37.452;2022-12-18T01:40:40;12.48;;;6.03;;
53881;SDS011;39794;55.782;37.452;2022-12-18T01:43:09;8.60;;;5.43;;
53881;SDS011;39794;55.782;37.452;2022-12-18T01:45:37;10.18;;;3.97;;
53881;SDS011;39794;55.782;37.452;2022-12-18T01:48:10;8.13;;;5.20;;
53881;SDS011;39794;55.782;37.452;2022-12-18T01:50:42;10.10;;;4.43;;
53881;SDS011;39794;55.782;37.452;2022-12-18T01:53:17;8.38;;;4.75;;
53881;SDS011;39794;55.782;37.452;2022-12-18T01:55:51;6.97;;;4.03;;
53881;SDS011;39794;55.782;37.452;2022-12-18T01:58:21;7.18;;;4.07;;
53881;SDS011;39794;55.782;37.452;2022-12-18T02:00:54;5.78;;;3.95;;
53881;SDS011;39794;55.782;37.452;2022-12-18T02:03:28;9.10;;;4.88;;
53881;SDS011;39794;55.782;37.452;2022-12-18T02:05:57;9.45;;;5.50;;
53881;SDS011;39794;55.782;37.452;2022-12-18T02:08:30;4.53;;;3.13;;
53881;SDS011;39794;55.782;37.452;2022-12-18T02:11:04;7.32;;;5.53;;
53881;SDS011;39794;55.782;37.452;2022-12-18T02:13:40;8.48;;;4.63;;
53881;SDS011;39794;55.782;37.452;2022-12-18T02:16:16;9.38;;;4.82;;
53881;SDS011;39794;55.782;37.452;2022-12-18T02:18:54;10.48;;;5.05;;
53881;SDS011;39794;55.782;37.452;2022-12-18T02:21:31;8.02;;;4.90;;
53881;SDS011;39794;55.782;37.452;2022-12-18T02:24:08;7.25;;;4.38;;
53881;SDS011;39794;55.782;37.452;2022-12-18T02:26:46;9.35;;;5.25;;
53881;SDS011;39794;55.782;37.452;2022-12-18T02:29:22;6.90;;;3.35;;
53881;SDS011;39794;55.782;37.452;2022-12-18T02:31:54;6.32;;;3.80;;
53881;SDS011;39794;55.782;37.452;2022-12-18T02:34:32;6.85;;;4.45;;
53881;SDS011;39794;55.782;37.452;2022-12-18T02:37:04;5.38;;;3.92;;
53881;SDS011;39794;55.782;37.452;2022-12-18T02:39:36;8.02;;;5.25;;
53881;SDS011;39794;55.782;37.452;2022-12-18T02:42:10;8.13;;;5.22;;
53881;SDS011;39794;55.782;37.452;2022-12-18T02:44:45;8.30;;;4.18;;
53881;SDS011;39794;55.782;37.452;2022-12-18T02:47:19;7.78;;;4.72;;
53881;SDS011;39794;55.782;37.452;2022-12-18T02:49:53;5.20;;;4.20;;
53881;SDS011;39794;55.782;37.452;2022-12-18T02:52:31;10.40;;;4.82;;
53881;SDS011;39794;55.782;37.452;2022-12-18T02:55:08;6.72;;;4.53;;
53881;SDS011;39794;55.782;37.452;2022-12-18T02:57:49;8.45;;;4.47;;
53881;SDS011;39794;55.782;37.452;2022-12-18T03:00:27;7.15;;;4.35;;
53881;SDS011;39794;55.782;37.452;2022-12-18T03:02:59;9.65;;;4.80;;
53881;SDS011;39794;55.782;37.452;2022-12-18T03:05:33;8.45;;;4.82;;
53881;SDS011;39794;55.782;37.452;2022-12-18T03:08:06;7.68;;;4.63;;
53881;SDS011;39794;55.782;37.452;2022-12-18T03:10:39;6.97;;;4.50;;
53881;SDS011;39794;55.782;37.452;2022-12-18T03:13:12;7.57;;;5.47;;
53881;SDS011;39794;55.782;37.452;2022-12-18T03:15:44;6.55;;;4.80;;
53881;SDS011;39794;55.782;37.452;2022-12-18T03:18:15;7.47;;;4.07;;
53881;SDS011;39794;55.782;37.452;2022-12-18T03:20:46;8.20;;;5.50;;
53881;SDS011;39794;55.782;37.452;2022-12-18T03:23:20;7.57;;;3.60;;
53881;SDS011;39794;55.782;37.452;2022-12-18T03:25:52;8.52;;;4.80;;
53881;SDS011;39794;55.782;37.452;2022-12-18T03:28:31;8.15;;;4.38;;
53881;SDS011;39794;55.782;37.452;2022-12-18T03:31:03;6.13;;;3.90;;
53881;SDS011;39794;55.782;37.452;2022-12-18T03:33:34;8.30;;;4.68;;
53881;SDS011;39794;55.782;37.452;2022-12-18T03:36:07;11.18;;;4.63;;
53881;SDS011;39794;55.782;37.452;2022-12-18T03:38:36;7.75;;;4.88;;
53881;SDS011;39794;55.782;37.452;2022-12-18T03:41:09;8.30;;;4.57;;
53881;SDS011;39794;55.782;37.452;2022-12-18T03:44:03;5.82;;;3.83;;
53881;SDS011;39794;55.782;37.452;2022-12-18T03:46:42;6.90;;;4.03;;
53881;SDS011;39794;55.782;37.452;2022-12-18T03:51:52;5.25;;;3.83;;
53881;SDS011;39794;55.782;37.452;2022-12-18T03:54:21;6.25;;;3.63;;
53881;SDS011;39794;55.782;37.452;2022-12-18T03:56:59;4.65;;;3.80;;
53881;SDS011;39794;55.782;37.452;2022-12-18T03:59:33;6.30;;;3.50;;
53881;SDS011;39794;55.782;37.452;2022-12-18T04:02:04;6.35;;;3.83;;
53881;SDS011;39794;55.782;37.452;2022-12-18T04:04:35;5.05;;;3.63;;
53881;SDS011;39794;55.782;37.452;2022-12-18T04:07:08;10.95;;;4.82;;
53881;SDS011;39794;55.782;37.452;2022-12-18T04:09:38;5.15;;;3.55;;
53881;SDS011;39794;55.782;37.452;2022-12-18T04:12:08;7.03;;;4.82;;
53881;SDS011;39794;55.782;37.452;2022-12-18T04:14:38;7.40;;;4.35;;
53881;SDS011;39794;55.782;37.452;2022-12-18T04:17:08;7.63;;;4.20;;
53881;SDS011;39794;55.782;37.452;2022-12-18T04:19:36;8.68;;;4.38;;
53881;SDS011;39794;55.782;37.452;2022-12-18T04:22:08;4.75;;;3.38;;
53881;SDS011;39794;55.782;37.452;2022-12-18T04:24:42;9.07;;;4.20;;
53881;SDS011;39794;55.782;37.452;2022-12-18T04:27:21;7.28;;;4.20;;
53881;SDS011;39794;55.782;37.452;2022-12-18T04:29:51;7.15;;;4.20;;
53881;SDS011;39794;55.782;37.452;2022-12-18T04:32:20;5.25;;;3.40;;
53881;SDS011;39794;55.782;37.452;2022-12-18T04:34:50;9.15;;;5.07;;
53881;SDS011;39794;55.782;37.452;2022-12-18T04:37:22;5.50;;;3.63;;
53881;SDS011;39794;55.782;37.452;2022-12-18T04:39:51;6.28;;;3.92;;
53881;SDS011;39794;55.782;37.452;2022-12-18T04:42:26;5.65;;;3.35;;
53881;SDS011;39794;55.782;37.452;2022-12-18T04:44:55;8.52;;;4.72;;
53881;SDS011;39794;55.782;37.452;2022-12-18T04:47:24;5.95;;;4.25;;
53881;SDS011;39794;55.782;37.452;2022-12-18T04:49:52;8.75;;;4.43;;
53881;SDS011;39794;55.782;37.452;2022-12-18T04:52:21;6.38;;;4.07;;
53881;SDS011;39794;55.782;37.452;2022-12-18T04:54:52;6.03;;;4.07;;
53881;SDS011;39794;55.782;37.452;2022-12-18T04:57:20;5.05;;;3.97;;
53881;SDS011;39794;55.782;37.452;2022-12-18T04:59:51;7.93;;;4.55;;
53881;SDS011;39794;55.782;37.452;2022-12-18T05:02:21;6.57;;;4.13;;
53881;SDS011;39794;55.782;37.452;2022-12-18T05:04:49;7.35;;;4.65;;
53881;SDS011;39794;55.782;37.452;2022-12-18T05:07:17;6.68;;;3.95;;
53881;SDS011;39794;55.782;37.452;2022-12-18T05:09:46;7.55;;;4.25;;
53881;SDS011;39794;55.782;37.452;2022-12-18T05:12:14;6.65;;;3.70;;
53881;SDS011;39794;55.782;37.452;2022-12-18T05:14:43;7.68;;;4.80;;
53881;SDS011;39794;55.782;37.452;2022-12-18T05:17:13;6.43;;;4.30;;
53881;SDS011;39794;55.782;37.452;2022-12-18T05:19:45;7.53;;;4.05;;
53881;SDS011;39794;55.782;37.452;2022-12-18T05:22:13;12.48;;;3.72;;
53881;SDS011;39794;55.782;37.452;2022-12-18T05:24:43;7.50;;;4.13;;
53881;SDS011;39794;55.782;37.452;2022-12-18T05:27:12;5.85;;;2.92;;
53881;SDS011;39794;55.782;37.452;2022-12-18T05:29:40;6.30;;;4.40;;
53881;SDS011;39794;55.782;37.452;2022-12-18T05:32:11;7.85;;;4.50;;
53881;SDS011;39794;55.782;37.452;2022-12-18T05:34:41;10.45;;;5.10;;
53881;SDS011;39794;55.782;37.452;2022-12-18T05:37:10;6.75;;;4.18;;
53881;SDS011;39794;55.782;37.452;2022-12-18T05:39:39;7.30;;;4.25;;
53881;SDS011;39794;55.782;37.452;2022-12-18T05:42:07;8.27;;;4.68;;
53881;SDS011;39794;55.782;37.452;2022-12-18T05:44:36;8.32;;;4.60;;
53881;SDS011;39794;55.782;37.452;2022-12-18T05:47:05;7.55;;;4.95;;
53881;SDS011;39794;55.782;37.452;2022-12-18T05:49:33;5.45;;;4.07;;
53881;SDS011;39794;55.782;37.452;2022-12-18T05:52:01;6.53;;;3.90;;
53881;SDS011;39794;55.782;37.452;2022-12-18T05:54:31;5.50;;;3.85;;
53881;SDS011;39794;55.782;37.452;2022-12-18T05:57:00;8.38;;;4.65;;
53881;SDS011;39794;55.782;37.452;2022-12-18T05:59:28;9.23;;;4.63;;
53881;SDS011;39794;55.782;37.452;2022-12-18T06:01:57;6.97;;;4.95;;
53881;SDS011;39794;55.782;37.452;2022-12-18T06:04:26;6.07;;;3.92;;
53881;SDS011;39794;55.782;37.452;2022-12-18T06:07:03;5.38;;;3.67;;
53881;SDS011;39794;55.782;37.452;2022-12-18T06:09:33;8.27;;;4.50;;
53881;SDS011;39794;55.782;37.452;2022-12-18T06:12:05;6.38;;;3.80;;
53881;SDS011;39794;55.782;37.452;2022-12-18T06:14:33;7.55;;;4.28;;
53881;SDS011;39794;55.782;37.452;2022-12-18T06:17:02;10.13;;;4.88;;
53881;SDS011;39794;55.782;37.452;2022-12-18T06:19:34;7.18;;;4.68;;
53881;SDS011;39794;55.782;37.452;2022-12-18T06:22:03;7.88;;;4.88;;
53881;SDS011;39794;55.782;37.452;2022-12-18T06:24:33;6.03;;;3.63;;
53881;SDS011;39794;55.782;37.452;2022-12-18T06:27:01;6.75;;;4.03;;
53881;SDS011;39794;55.782;37.452;2022-12-18T06:29:30;9.57;;;4.25;;
53881;SDS011;39794;55.782;37.452;2022-12-18T06:31:58;5.93;;;3.50;;
53881;SDS011;39794;55.782;37.452;2022-12-18T06:34:30;5.30;;;4.03;;
53881;SDS011;39794;55.782;37.452;2022-12-18T06:36:59;6.30;;;4.63;;
53881;SDS011;39794;55.782;37.452;2022-12-18T06:39:29;6.45;;;3.58;;
53881;SDS011;39794;55.782;37.452;2022-12-18T06:41:58;7.18;;;4.13;;
53881;SDS011;39794;55.782;37.452;2022-12-18T06:44:30;8.50;;;4.78;;
53881;SDS011;39794;55.782;37.452;2022-12-18T06:47:02;4.38;;;3.17;;
53881;SDS011;39794;55.782;37.452;2022-12-18T06:49:31;6.43;;;3.75;;
53881;SDS011;39794;55.782;37.452;2022-12-18T06:52:00;9.95;;;4.18;;
53881;SDS011;39794;55.782;37.452;2022-12-18T06:54:28;6.32;;;3.33;;
53881;SDS011;39794;55.782;37.452;2022-12-18T06:56:58;4.45;;;2.80;;
53881;SDS011;39794;55.782;37.452;2022-12-18T06:59:27;7.40;;;4.30;;
53881;SDS011;39794;55.782;37.452;2022-12-18T07:01:55;8.40;;;4.00;;
53881;SDS011;39794;55.782;37.452;2022-12-18T07:04:27;6.60;;;3.90;;
53881;SDS011;39794;55.782;37.452;2022-12-18T07:06:56;6.47;;;3.22;;
53881;SDS011;39794;55.782;37.452;2022-12-18T07:09:25;7.05;;;3.67;;
53881;SDS011;39794;55.782;37.452;2022-12-18T07:11:56;5.88;;;3.65;;
53881;SDS011;39794;55.782;37.452;2022-12-18T07:14:29;5.13;;;3.15;;
53881;SDS011;39794;55.782;37.452;2022-12-18T07:17:01;6.45;;;4.03;;
53881;SDS011;39794;55.782;37.452;2022-12-18T07:19:32;8.40;;;3.80;;
53881;SDS011;39794;55.782;37.452;2022-12-18T07:22:01;5.45;;;3.53;;
53881;SDS011;39794;55.782;37.452;2022-12-18T07:24:30;5.53;;;3.67;;
53881;SDS011;39794;55.782;37.452;2022-12-18T07:26:58;5.85;;;3.22;;
53881;SDS011;39794;55.782;37.452;2022-12-18T07:29:28;3.20;;;2.60;;
53881;SDS011;39794;55.782;37.452;2022-12-18T07:31:58;5.97;;;3.42;;
53881;SDS011;39794;55.782;37.452;2022-12-18T07:34:27;5.68;;;3.67;;
53881;SDS011;39794;55.782;37.452;2022-12-18T07:36:55;5.43;;;2.95;;
53881;SDS011;39794;55.782;37.452;2022-12-18T07:39:24;7.97;;;4.47;;
53881;SDS011;39794;55.782;37.452;2022-12-18T07:41:52;5.72;;;4.28;;
53881;SDS011;39794;55.782;37.452;2022-12-18T07:44:36;7.00;;;3.97;;
53881;SDS011;39794;55.782;37.452;2022-12-18T07:47:06;6.82;;;4.50;;
53881;SDS011;39794;55.782;37.452;2022-12-18T07:49:37;6.20;;;3.63;;
53881;SDS011;39794;55.782;37.452;2022-12-18T07:52:07;5.50;;;3.92;;
53881;SDS011;39794;55.782;37.452;2022-12-18T07:54:36;4.47;;;3.00;;
53881;SDS011;39794;55.782;37.452;2022-12-18T07:57:04;8.68;;;4.30;;
53881;SDS011;39794;55.782;37.452;2022-12-18T07:59:58;5.65;;;3.72;;
53881;SDS011;39794;55.782;37.452;2022-12-18T08:02:40;6.97;;;4.55;;
53881;SDS011;39794;55.782;37.452;2022-12-18T08:05:08;7.88;;;4.03;;
53881;SDS011;39794;55.782;37.452;2022-12-18T08:07:37;7.80;;;4.43;;
53881;SDS011;39794;55.782;37.452;2022-12-18T08:10:06;7.47;;;4.07;;
53881;SDS011;39794;55.782;37.452;2022-12-18T08:12:35;5.72;;;2.88;;
53881;SDS011;39794;55.782;37.452;2022-12-18T08:15:05;6.93;;;4.38;;
53881;SDS011;39794;55.782;37.452;2022-12-18T08:17:37;8.07;;;4.05;;
53881;SDS011;39794;55.782;37.452;2022-12-18T08:20:06;6.97;;;4.70;;
53881;SDS011;39794;55.782;37.452;2022-12-18T08:22:37;6.60;;;3.63;;
53881;SDS011;39794;55.782;37.452;2022-12-18T08:25:06;5.07;;;3.05;;
53881;SDS011;39794;55.782;37.452;2022-12-18T08:27:34;5.57;;;3.53;;
53881;SDS011;39794;55.782;37.452;2022-12-18T08:30:08;5.28;;;3.35;;
53881;SDS011;39794;55.782;37.452;2022-12-18T08:32:37;6.05;;;3.38;;
53881;SDS011;39794;55.782;37.452;2022-12-18T08:35:06;6.05;;;3.60;;
53881;SDS011;39794;55.782;37.452;2022-12-18T08:37:44;5.72;;;3.88;;
53881;SDS011;39794;55.782;37.452;2022-12-18T08:40:12;6.05;;;3.15;;
53881;SDS011;39794;55.782;37.452;2022-12-18T08:42:41;5.78;;;3.00;;
53881;SDS011;39794;55.782;37.452;2022-12-18T08:45:28;5.95;;;3.70;;
53881;SDS011;39794;55.782;37.452;2022-12-18T08:48:03;6.22;;;3.17;;
53881;SDS011;39794;55.782;37.452;2022-12-18T08:50:32;5.63;;;3.45;;
53881;SDS011;39794;55.782;37.452;2022-12-18T08:53:03;6.07;;;3.38;;
53881;SDS011;39794;55.782;37.452;2022-12-18T08:55:31;5.38;;;3.17;;
53881;SDS011;39794;55.782;37.452;2022-12-18T08:58:00;6.35;;;3.78;;
53881;SDS011;39794;55.782;37.452;2022-12-18T09:00:33;6.15;;;4.10;;
53881;SDS011;39794;55.782;37.452;2022-12-18T09:03:04;5.38;;;3.42;;
53881;SDS011;39794;55.782;37.452;2022-12-18T09:05:37;5.50;;;3.28;;
53881;SDS011;39794;55.782;37.452;2022-12-18T09:08:08;6.22;;;3.65;;
53881;SDS011;39794;55.782;37.452;2022-12-18T09:10:41;7.80;;;4.97;;
53881;SDS011;39794;55.782;37.452;2022-12-18T09:13:10;7.43;;;4.10;;
53881;SDS011;39794;55.782;37.452;2022-12-18T09:15:41;8.00;;;4.00;;
53881;SDS011;39794;55.782;37.452;2022-12-18T09:18:12;6.18;;;3.90;;
53881;SDS011;39794;55.782;37.452;2022-12-18T09:20:42;4.70;;;3.35;;
53881;SDS011;39794;55.782;37.452;2022-12-18T09:23:11;2.30;;;1.80;;
53881;SDS011;39794;55.782;37.452;2022-12-18T09:25:40;6.45;;;3.95;;
53881;SDS011;39794;55.782;37.452;2022-12-18T09:28:12;6.03;;;3.08;;
53881;SDS011;39794;55.782;37.452;2022-12-18T09:30:49;6.22;;;4.05;;
53881;SDS011;39794;55.782;37.452;2022-12-18T09:33:17;7.53;;;3.67;;
53881;SDS011;39794;55.782;37.452;2022-12-18T09:35:51;5.07;;;3.70;;
53881;SDS011;39794;55.782;37.452;2022-12-18T09:38:22;5.25;;;2.53;;
53881;SDS011;39794;55.782;37.452;2022-12-18T09:40:51;5.47;;;2.83;;
53881;SDS011;39794;55.782;37.452;2022-12-18T09:43:22;4.68;;;3.25;;
53881;SDS011;39794;55.782;37.452;2022-12-18T09:45:59;5.70;;;3.22;;
53881;SDS011;39794;55.782;37.452;2022-12-18T09:48:32;4.47;;;3.13;;
53881;SDS011;39794;55.782;37.452;2022-12-18T09:51:05;7.43;;;3.38;;
53881;SDS011;39794;55.782;37.452;2022-12-18T09:53:39;3.97;;;3.30;;
53881;SDS011;39794;55.782;37.452;2022-12-18T09:56:10;5.78;;;3.20;;
53881;SDS011;39794;55.782;37.452;2022-12-18T09:58:41;4.75;;;3.17;;
53881;SDS011;39794;55.782;37.452;2022-12-18T10:01:17;5.75;;;3.58;;
53881;SDS011;39794;55.782;37.452;2022-12-18T10:03:49;4.82;;;2.85;;
53881;SDS011;39794;55.782;37.452;2022-12-18T10:06:20;8.88;;;3.17;;
53881;SDS011;39794;55.782;37.452;2022-12-18T10:08:51;6.07;;;2.92;;
53881;SDS011;39794;55.782;37.452;2022-12-18T10:11:27;5.70;;;2.83;;
53881;SDS011;39794;55.782;37.452;2022-12-18T10:14:01;5.90;;;3.60;;
53881;SDS011;39794;55.782;37.452;2022-12-18T10:16:38;7.50;;;3.17;;
53881;SDS011;39794;55.782;37.452;2022-12-18T10:19:29;4.18;;;2.90;;
53881;SDS011;39794;55.782;37.452;2022-12-18T10:22:10;6.18;;;3.15;;
53881;SDS011;39794;55.782;37.452;2022-12-18T10:24:45;7.40;;;3.50;;
53881;SDS011;39794;55.782;37.452;2022-12-18T10:27:21;5.78;;;3.70;;
53881;SDS011;39794;55.782;37.452;2022-12-18T10:29:51;4.05;;;2.80;;
53881;SDS011;39794;55.782;37.452;2022-12-18T10:32:27;6.60;;;3.75;;
53881;SDS011;39794;55.782;37.452;2022-12-18T10:34:57;7.57;;;3.25;;
53881;SDS011;39794;55.782;37.452;2022-12-18T10:37:29;5.97;;;3.03;;
53881;SDS011;39794;55.782;37.452;2022-12-18T10:40:12;5.63;;;3.53;;
53881;SDS011;39794;55.782;37.452;2022-12-18T10:42:50;5.50;;;3.30;;
53881;SDS011;39794;55.782;37.452;2022-12-18T10:45:34;5.18;;;3.00;;
53881;SDS011;39794;55.782;37.452;2022-12-18T10:48:18;6.38;;;2.90;;
53881;SDS011;39794;55.782;37.452;2022-12-18T10:50:48;5.00;;;2.65;;
53881;SDS011;39794;55.782;37.452;2022-12-18T10:53:38;3.63;;;2.75;;
53881;SDS011;39794;55.782;37.452;2022-12-18T10:56:11;6.15;;;3.15;;
53881;SDS011;39794;55.782;37.452;2022-12-18T10:58:40;5.90;;;3.20;;
53881;SDS011;39794;55.782;37.452;2022-12-18T11:01:13;11.50;;;3.10;;
53881;SDS011;39794;55.782;37.452;2022-12-18T11:03:45;5.30;;;3.40;;
53881;SDS011;39794;55.782;37.452;2022-12-18T11:06:17;5.88;;;3.20;;
53881;SDS011;39794;55.782;37.452;2022-12-18T11:08:56;3.63;;;2.67;;
53881;SDS011;39794;55.782;37.452;2022-12-18T11:11:38;4.05;;;2.90;;
53881;SDS011;39794;55.782;37.452;2022-12-18T11:14:12;4.28;;;3.10;;
53881;SDS011;39794;55.782;37.452;2022-12-18T11:16:48;4.68;;;2.72;;
53881;SDS011;39794;55.782;37.452;2022-12-18T11:19:39;4.97;;;2.75;;
53881;SDS011;39794;55.782;37.452;2022-12-18T11:22:17;5.75;;;2.90;;
53881;SDS011;39794;55.782;37.452;2022-12-18T11:24:52;5.05;;;3.17;;
53881;SDS011;39794;55.782;37.452;2022-12-18T11:27:46;6.10;;;3.40;;
53881;SDS011;39794;55.782;37.452;2022-12-18T11:30:23;4.72;;;3.22;;
53881;SDS011;39794;55.782;37.452;2022-12-18T11:32:56;5.22;;;3.17;;
53881;SDS011;39794;55.782;37.452;2022-12-18T11:38:28;4.68;;;3.10;;
53881;SDS011;39794;55.782;37.452;2022-12-18T11:41:02;5.38;;;3.05;;
53881;SDS011;39794;55.782;37.452;2022-12-18T11:43:34;6.65;;;2.97;;
53881;SDS011;39794;55.782;37.452;2022-12-18T11:46:06;6.80;;;3.38;;
53881;SDS011;39794;55.782;37.452;2022-12-18T11:48:45;3.42;;;2.55;;
53881;SDS011;39794;55.782;37.452;2022-12-18T11:51:25;5.68;;;3.15;;
53881;SDS011;39794;55.782;37.452;2022-12-18T11:53:59;4.18;;;2.47;;
53881;SDS011;39794;55.782;37.452;2022-12-18T11:56:29;3.45;;;2.08;;
53881;SDS011;39794;55.782;37.452;2022-12-18T11:59:04;2.97;;;2.13;;
53881;SDS011;39794;55.782;37.452;2022-12-18T12:01:42;4.22;;;3.45;;
53881;SDS011;39794;55.782;37.452;2022-12-18T12:04:32;6.10;;;2.20;;
53881;SDS011;39794;55.782;37.452;2022-12-18T12:07:15;4.18;;;2.20;;
53881;SDS011;39794;55.782;37.452;2022-12-18T12:09:54;5.50;;;3.00;;
53881;SDS011;39794;55.782;37.452;2022-12-18T12:12:32;3.78;;;2.58;;
53881;SDS011;39794;55.782;37.452;2022-12-18T12:15:18;6.57;;;3.03;;
53881;SDS011;39794;55.782;37.452;2022-12-18T12:18:00;4.07;;;2.50;;
53881;SDS011;39794;55.782;37.452;2022-12-18T12:20:41;3.97;;;2.33;;
53881;SDS011;39794;55.782;37.452;2022-12-18T12:23:15;4.60;;;2.65;;
53881;SDS011;39794;55.782;37.452;2022-12-18T12:25:55;4.78;;;2.25;;
53881;SDS011;39794;55.782;37.452;2022-12-18T12:28:37;4.45;;;2.92;;
53881;SDS011;39794;55.782;37.452;2022-12-18T12:31:47;4.88;;;2.58;;
53881;SDS011;39794;55.782;37.452;2022-12-18T12:34:26;4.05;;;2.47;;
53881;SDS011;39794;55.782;37.452;2022-12-18T12:39:34;3.55;;;1.95;;
53881;SDS011;39794;55.782;37.452;2022-12-18T12:42:05;3.53;;;2.35;;
53881;SDS011;39794;55.782;37.452;2022-12-18T12:44:56;6.10;;;3.67;;
53881;SDS011;39794;55.782;37.452;2022-12-18T12:47:30;2.00;;;1.77;;
53881;SDS011;39794;55.782;37.452;2022-12-18T12:50:05;3.70;;;2.35;;
53881;SDS011;39794;55.782;37.452;2022-12-18T12:52:42;5.10;;;2.92;;
53881;SDS011;39794;55.782;37.452;2022-12-18T12:55:15;5.18;;;2.78;;
53881;SDS011;39794;55.782;37.452;2022-12-18T12:58:11;6.55;;;2.53;;
53881;SDS011;39794;55.782;37.452;2022-12-18T13:00:44;7.68;;;4.07;;
53881;SDS011;39794;55.782;37.452;2022-12-18T13:03:24;8.90;;;3.60;;
53881;SDS011;39794;55.782;37.452;2022-12-18T13:06:00;8.95;;;5.38;;
53881;SDS011;39794;55.782;37.452;2022-12-18T13:08:34;12.00;;;4.45;;
53881;SDS011;39794;55.782;37.452;2022-12-18T13:11:34;7.10;;;3.53;;
53881;SDS011;39794;55.782;37.452;2022-12-18T13:14:30;7.80;;;4.38;;
53881;SDS011;39794;55.782;37.452;2022-12-18T13:20:03;12.77;;;4.10;;
53881;SDS011;39794;55.782;37.452;2022-12-18T13:22:37;13.68;;;4.93;;
53881;SDS011;39794;55.782;37.452;2022-12-18T13:28:03;7.93;;;4.63;;
53881;SDS011;39794;55.782;37.452;2022-12-18T13:30:42;13.20;;;5.43;;
53881;SDS011;39794;55.782;37.452;2022-12-18T13:36:34;9.23;;;4.97;;
53881;SDS011;39794;55.782;37.452;2022-12-18T13:39:10;15.02;;;4.68;;
53881;SDS011;39794;55.782;37.452;2022-12-18T13:45:37;10.05;;;4.45;;
53881;SDS011;39794;55.782;37.452;2022-12-18T13:48:21;11.48;;;4.53;;
53881;SDS011;39794;55.782;37.452;2022-12-18T13:50:52;9.68;;;5.60;;
53881;SDS011;39794;55.782;37.452;2022-12-18T13:53:24;11.88;;;4.97;;
53881;SDS011;39794;55.782;37.452;2022-12-18T13:55:55;12.63;;;5.60;;
53881;SDS011;39794;55.782;37.452;2022-12-18T13:58:24;10.75;;;5.25;;
53881;SDS011;39794;55.782;37.452;2022-12-18T14:00:54;10.50;;;4.53;;
53881;SDS011;39794;55.782;37.452;2022-12-18T14:03:24;6.95;;;3.40;;
53881;SDS011;39794;55.782;37.452;2022-12-18T14:05:54;8.27;;;4.57;;
53881;SDS011;39794;55.782;37.452;2022-12-18T14:08:24;8.40;;;4.50;;
53881;SDS011;39794;55.782;37.452;2022-12-18T14:10:57;7.13;;;4.45;;
53881;SDS011;39794;55.782;37.452;2022-12-18T14:13:26;7.80;;;3.75;;
53881;SDS011;39794;55.782;37.452;2022-12-18T14:16:01;5.82;;;3.58;;
53881;SDS011;39794;55.782;37.452;2022-12-18T14:18:33;7.45;;;3.17;;
53881;SDS011;39794;55.782;37.452;2022-12-18T14:21:17;7.95;;;4.28;;
53881;SDS011;39794;55.782;37.452;2022-12-18T14:24:02;4.88;;;3.65;;
53881;SDS011;39794;55.782;37.452;2022-12-18T14:26:45;6.23;;;3.67;;
53881;SDS011;39794;55.782;37.452;2022-12-18T14:29:20;5.72;;;3.03;;
53881;SDS011;39794;55.782;37.452;2022-12-18T14:32:10;6.10;;;3.60;;
53881;SDS011;39794;55.782;37.452;2022-12-18T14:34:44;6.78;;;3.33;;
53881;SDS011;39794;55.782;37.452;2022-12-18T14:37:14;4.97;;;2.85;;
53881;SDS011;39794;55.782;37.452;2022-12-18T14:39:55;5.85;;;3.03;;
53881;SDS011;39794;55.782;37.452;2022-12-18T14:42:25;7.22;;;3.92;;
53881;SDS011;39794;55.782;37.452;2022-12-18T14:48:13;6.55;;;3.47;;
53881;SDS011;39794;55.782;37.452;2022-12-18T14:50:59;4.50;;;2.90;;
53881;SDS011;39794;55.782;37.452;2022-12-18T14:53:32;5.07;;;2.92;;
53881;SDS011;39794;55.782;37.452;2022-12-18T14:56:14;5.57;;;3.58;;
53881;SDS011;39794;55.782;37.452;2022-12-18T14:58:47;4.10;;;3.00;;
53881;SDS011;39794;55.782;37.452;2022-12-18T15:01:18;3.95;;;2.47;;
53881;SDS011;39794;55.782;37.452;2022-12-18T15:03:51;3.35;;;2.67;;
53881;SDS011;39794;55.782;37.452;2022-12-18T15:06:25;5.00;;;2.63;;
53881;SDS011;39794;55.782;37.452;2022-12-18T15:08:57;6.57;;;3.38;;
53881;SDS011;39794;55.782;37.452;2022-12-18T15:11:43;5.88;;;3.53;;
53881;SDS011;39794;55.782;37.452;2022-12-18T15:14:23;6.38;;;2.90;;
53881;SDS011;39794;55.782;37.452;2022-12-18T15:17:00;7.15;;;3.72;;
53881;SDS011;39794;55.782;37.452;2022-12-18T15:19:39;5.45;;;2.97;;
53881;SDS011;39794;55.782;37.452;2022-12-18T15:22:17;5.75;;;3.25;;
53881;SDS011;39794;55.782;37.452;2022-12-18T15:24:48;5.40;;;3.28;;
53881;SDS011;39794;55.782;37.452;2022-12-18T15:27:22;3.40;;;2.35;;
53881;SDS011;39794;55.782;37.452;2022-12-18T15:32:49;4.40;;;2.88;;
53881;SDS011;39794;55.782;37.452;2022-12-18T15:35:24;6.45;;;3.30;;